Time;durP1;ratioP1;P1;durP2;ratioP2;P2;SDS_P1;SDS_P2;PMS_P1;PMS_P2;Temp;Humidity;BMP_temperature;BMP_pressure;BME280_temperature;BME280_humidity;BME280_pressure;Samples;Min_cycle;Max_cycle;Signal;HPM_P1;HPM_P2
2022/10/26 00:01:05;;;;;;;38.20;26.20;;;;;;;9.92;94.63;98746.33;106338;1310;138482;-81
2022/10/26 00:03:35;;;;;;;35.90;24.40;;;;;;;9.90;94.51;98751.45;106536;1310;22046;-81
2022/10/26 00:06:04;;;;;;;39.60;25.00;;;;;;;9.88;94.47;98753.53;106458;1298;22187;-81
2022/10/26 00:08:30;;;;;;;31.30;21.00;;;;;;;9.83;93.95;98756.63;106469;1310;138293;-81
2022/10/26 00:10:56;;;;;;;37.50;27.30;;;;;;;9.77;93.62;98763.67;106568;1311;22120;-81
2022/10/26 00:13:23;;;;;;;38.00;25.40;;;;;;;9.70;94.03;98755.30;106476;1310;138842;-81
2022/10/26 00:15:49;;;;;;;35.90;25.50;;;;;;;9.65;94.31;98757.93;106500;1303;22795;-81
2022/10/26 00:18:15;;;;;;;35.70;26.50;;;;;;;9.61;94.33;98766.16;106571;1310;22109;-81
2022/10/26 00:20:41;;;;;;;38.50;25.00;;;;;;;9.57;94.16;98766.58;106421;1310;138581;-82
2022/10/26 00:23:07;;;;;;;34.30;24.70;;;;;;;9.55;94.23;98768.27;106607;1310;22113;-81
2022/10/26 00:25:35;;;;;;;34.20;23.70;;;;;;;9.54;94.51;98772.08;106464;1296;138300;-81
2022/10/26 00:28:01;;;;;;;39.40;26.00;;;;;;;9.50;94.28;98771.13;106604;1310;22093;-81
2022/10/26 00:30:27;;;;;;;40.30;27.10;;;;;;;9.48;94.44;98772.53;106482;1307;22094;-81
2022/10/26 00:32:53;;;;;;;36.00;24.80;;;;;;;9.46;94.37;98762.31;106483;1310;138342;-82
2022/10/26 00:35:25;;;;;;;35.20;24.30;;;;;;;9.44;94.76;98764.02;106543;1297;22268;-81
2022/10/26 00:37:55;;;;;;;33.60;22.80;;;;;;;9.43;95.04;98762.02;106449;1298;138137;-81
2022/10/26 00:40:26;;;;;;;33.50;25.30;;;;;;;9.43;95.40;98765.02;106433;1312;22073;-82
2022/10/26 00:42:52;;;;;;;32.70;23.50;;;;;;;9.45;95.87;98765.66;106707;1302;138338;-81
2022/10/26 00:45:27;;;;;;;32.50;23.20;;;;;;;9.46;95.97;98763.90;106531;1306;22138;-82
2022/10/26 00:48:06;;;;;;;37.80;24.00;;;;;;;9.49;96.05;98762.39;106493;1310;22838;-81
2022/10/26 00:50:35;;;;;;;;;;;;;;;9.52;96.00;98765.30;106506;1309;138398;-81
2022/10/26 00:53:03;;;;;;;;;;;;;;;9.51;96.07;98766.25;106501;1310;22445;-82
2022/10/26 00:55:41;;;;;;;35.20;21.30;;;;;;;9.53;96.08;98766.04;106407;1299;124449;-81
2022/10/26 00:58:09;;;;;;;31.70;22.20;;;;;;;9.54;96.21;98767.59;106600;1309;22437;-82
2022/10/26 01:00:38;;;;;;;36.80;22.90;;;;;;;9.57;96.28;98762.16;106538;1310;22346;-81
2022/10/26 01:03:06;;;;;;;31.10;21.10;;;;;;;9.60;96.29;98770.73;106408;1310;138197;-82
2022/10/26 01:05:35;;;;;;;36.80;21.20;;;;;;;9.63;96.35;98769.73;106439;1301;22088;-81
2022/10/26 01:08:02;;;;;;;37.20;22.90;;;;;;;9.65;96.19;98767.94;106444;1310;138178;-82
2022/10/26 01:10:28;;;;;;;36.30;21.90;;;;;;;9.67;96.30;98770.13;106845;1290;22729;-81
2022/10/26 01:12:57;;;;;;;30.00;20.40;;;;;;;9.69;96.25;98768.92;106430;1303;138517;-81
2022/10/26 01:15:54;;;;;;;35.40;23.80;;;;;;;9.73;96.25;98773.30;106553;1296;22187;-81
2022/10/26 01:18:54;;;;;;;36.60;21.70;;;;;;;9.76;96.28;98776.66;105891;1317;22998;-81
2022/10/26 01:21:44;;;;;;;32.20;22.30;;;;;;;9.78;96.14;98776.38;105222;1324;22337;-81
2022/10/26 01:24:10;;;;;;;39.30;24.70;;;;;;;9.80;96.09;98773.21;105211;1323;22252;-81
2022/10/26 01:26:57;;;;;;;41.10;26.20;;;;;;;9.82;96.28;98771.20;105105;1313;138786;-81
2022/10/26 01:29:50;;;;;;;38.70;26.40;;;;;;;9.84;96.21;98768.30;105185;1324;22262;-82
2022/10/26 01:32:30;;;;;;;41.50;25.00;;;;;;;9.86;96.19;98763.98;105122;1324;138356;-82
2022/10/26 01:35:12;;;;;;;38.70;25.70;;;;;;;9.87;95.79;98762.30;105217;1316;22163;-82
2022/10/26 01:37:46;;;;;;;40.50;25.70;;;;;;;9.86;96.18;98761.80;105138;1313;138398;-82
2022/10/26 01:40:24;;;;;;;36.00;26.70;;;;;;;9.85;95.96;98764.05;105376;1325;22190;-82
2022/10/26 01:42:53;;;;;;;43.00;26.50;;;;;;;9.83;95.69;98764.92;105261;1325;138569;-81
2022/10/26 01:45:22;;;;;;;;;;;;;;;9.82;95.79;98767.52;105330;1325;22439;-82
2022/10/26 01:47:50;;;;;;;42.00;26.90;;;;;;;9.79;95.77;98765.98;105142;1310;22192;-82
2022/10/26 01:50:18;;;;;;;41.90;27.10;;;;;;;9.76;95.53;98763.34;105113;1324;139217;-82
2022/10/26 01:52:49;;;;;;;45.00;27.50;;;;;;;9.73;95.53;98765.07;105207;1324;22181;-82
2022/10/26 01:55:38;;;;;;;47.50;28.50;;;;;;;9.70;95.40;98763.90;105194;1318;138883;-81
2022/10/26 01:58:33;;;;;;;39.10;28.20;;;;;;;9.67;95.61;98765.95;105945;1303;22085;-82
2022/10/26 02:01:27;;;;;;;39.90;26.70;;;;;;;9.66;95.60;98763.66;106261;1310;138414;-81
2022/10/26 02:04:06;;;;;;;37.80;26.70;;;;;;;9.64;95.54;98763.35;106554;1310;23041;-82
2022/10/26 02:06:42;;;;;;;38.00;25.10;;;;;;;9.63;95.99;98760.83;106533;1310;22119;-81
2022/10/26 02:09:17;;;;;;;39.70;25.70;;;;;;;9.63;95.93;98758.69;106314;1299;138576;-82
2022/10/26 02:11:47;;;;;;;38.50;24.50;;;;;;;9.62;95.90;98755.46;106561;1310;22273;-82
2022/10/26 02:14:59;;;;;;;35.30;24.40;;;;;;;9.62;96.07;98758.62;106433;1304;138401;-81
2022/10/26 02:17:47;;;;;;;30.60;22.50;;;;;;;9.61;95.98;98762.60;106523;1306;22163;-81
2022/10/26 02:20:23;;;;;;;37.40;23.40;;;;;;;9.60;96.03;98761.16;106475;1310;138354;-81
2022/10/26 02:22:51;;;;;;;37.70;23.60;;;;;;;9.60;96.25;98763.79;106631;1310;22115;-82
2022/10/26 02:25:33;;;;;;;37.60;25.40;;;;;;;9.59;96.03;98764.42;106505;1310;138455;-82
2022/10/26 02:28:05;;;;;;;36.10;23.00;;;;;;;9.57;95.96;98763.04;106555;1298;23022;-81
2022/10/26 02:30:33;;;;;;;35.60;24.00;;;;;;;9.56;96.02;98762.17;106532;1309;22119;-81
2022/10/26 02:33:05;;;;;;;36.10;24.20;;;;;;;9.56;96.00;98765.90;106442;1310;138108;-81
2022/10/26 02:35:35;;;;;;;36.60;25.20;;;;;;;9.55;95.76;98766.46;106561;1310;22119;-81
2022/10/26 02:38:07;;;;;;;35.50;25.70;;;;;;;9.53;95.74;98767.24;106478;1302;138194;-81
2022/10/26 02:40:35;;;;;;;38.90;24.70;;;;;;;9.52;95.70;98767.54;106488;1305;22333;-81
2022/10/26 02:43:08;;;;;;;36.40;24.30;;;;;;;9.52;95.92;98769.55;106488;1310;138731;-81
2022/10/26 02:45:42;;;;;;;38.70;25.60;;;;;;;9.51;95.70;98770.08;106616;1310;22106;-81
2022/10/26 02:48:08;;;;;;;37.20;24.20;;;;;;;9.49;95.65;98770.39;106559;1298;22338;-81
2022/10/26 02:50:50;;;;;;;37.90;25.00;;;;;;;9.46;95.53;98769.13;106430;1310;138131;-81
2022/10/26 02:53:27;;;;;;;35.70;24.10;;;;;;;9.43;95.34;98772.67;106539;1310;22778;-81
2022/10/26 02:55:54;;;;;;;39.30;24.80;;;;;;;9.41;95.50;98769.40;106352;1312;138614;-81
2022/10/26 02:58:31;;;;;;;35.90;24.30;;;;;;;9.37;95.35;98764.70;106552;1295;22127;-81
2022/10/26 03:00:58;;;;;;;32.10;20.80;;;;;;;9.35;95.38;98770.61;106470;1310;138544;-82
2022/10/26 03:03:25;;;;;;;30.10;21.50;;;;;;;9.31;95.23;98777.61;106509;1310;22097;-81
2022/10/26 03:05:51;;;;;;;35.50;23.10;;;;;;;9.25;95.21;98779.06;106480;1304;22119;-81
2022/10/26 03:08:17;;;;;;;36.70;22.90;;;;;;;9.19;95.31;98777.16;106756;1286;138535;-81
2022/10/26 03:10:45;;;;;;;35.90;23.20;;;;;;;9.15;95.53;98779.77;106603;1310;22823;-82
2022/10/26 03:13:12;;;;;;;32.50;20.80;;;;;;;9.10;95.87;98783.98;106569;1310;138592;-81
2022/10/26 03:15:39;;;;;;;29.00;19.20;;;;;;;9.05;96.23;98782.44;106616;1310;22223;-81
2022/10/26 03:18:08;;;;;;;37.30;22.80;;;;;;;9.03;96.60;98786.02;106629;1308;22123;-82
2022/10/26 03:20:34;;;;;;;;;;;;;;;9.02;96.61;98780.10;106456;1310;138323;-82
2022/10/26 03:23:00;;;;;;;33.80;20.20;;;;;;;8.99;96.86;98780.45;106547;1310;22126;-81
2022/10/26 03:25:27;;;;;;;34.50;23.30;;;;;;;8.98;97.05;98785.36;106427;1304;138391;-82
2022/10/26 03:28:00;;;;;;;34.20;22.50;;;;;;;8.97;96.96;98788.76;106515;1310;23184;-81
2022/10/26 03:30:28;;;;;;;34.90;24.10;;;;;;;8.95;96.66;98792.99;106508;1297;22860;-82
2022/10/26 03:32:54;;;;;;;37.00;23.40;;;;;;;8.92;96.85;98788.86;106316;1310;138394;-81
2022/10/26 03:35:20;;;;;;;36.30;23.40;;;;;;;8.92;96.84;98791.83;106312;1311;22263;-81
2022/10/26 03:37:46;;;;;;;33.00;23.80;;;;;;;8.92;97.07;98796.01;106357;1311;138391;-82
2022/10/26 03:40:13;;;;;;;40.60;25.70;;;;;;;8.91;96.98;98799.90;106540;1310;22428;-82
2022/10/26 03:42:40;;;;;;;38.20;24.60;;;;;;;8.93;97.08;98799.17;106373;1310;22265;-81
2022/10/26 03:45:07;;;;;;;39.60;25.00;;;;;;;8.92;96.94;98798.72;106499;1310;138052;-81
2022/10/26 03:47:33;;;;;;;37.70;26.00;;;;;;;8.92;97.07;98797.84;106493;1310;22917;-81
2022/10/26 03:49:59;;;;;;;37.90;25.90;;;;;;;8.92;96.94;98798.52;106441;1298;138288;-81
2022/10/26 03:52:25;;;;;;;38.60;24.90;;;;;;;8.92;96.87;98801.23;106525;1310;22270;-81
2022/10/26 03:54:52;;;;;;;40.20;26.30;;;;;;;8.91;96.90;98803.49;106421;1291;138311;-81
2022/10/26 03:57:18;;;;;;;46.60;28.70;;;;;;;8.90;96.66;98804.47;106541;1310;22350;-81
2022/10/26 03:59:44;;;;;;;44.20;29.30;;;;;;;8.88;96.72;98804.91;106545;1289;22296;-82
2022/10/26 04:02:10;;;;;;;44.30;32.00;;;;;;;8.86;96.74;98802.63;106478;1310;138273;-81
2022/10/26 04:04:37;;;;;;;45.10;31.40;;;;;;;8.84;96.68;98797.88;106558;1310;22112;-82
2022/10/26 04:07:03;;;;;;;46.90;31.60;;;;;;;8.83;96.87;98799.85;106462;1310;138228;-81
2022/10/26 04:09:29;;;;;;;52.20;34.80;;;;;;;8.83;96.83;98800.61;106542;1310;22229;-81
2022/10/26 04:11:55;;;;;;;47.20;32.90;;;;;;;8.82;96.90;98803.30;106533;1312;22198;-82
2022/10/26 04:14:21;;;;;;;51.80;32.40;;;;;;;8.81;96.87;98801.59;106428;1312;138863;-81
2022/10/26 04:16:47;;;;;;;44.30;29.80;;;;;;;8.79;96.82;98802.61;106564;1312;23100;-81
2022/10/26 04:19:13;;;;;;;42.20;28.80;;;;;;;8.76;96.78;98802.40;106433;1306;138577;-82
2022/10/26 04:21:39;;;;;;;45.60;29.00;;;;;;;8.73;96.81;98802.77;106582;1296;22843;-81
2022/10/26 04:24:06;;;;;;;44.50;28.10;;;;;;;8.70;96.92;98801.29;106598;1309;22138;-82
2022/10/26 04:26:32;;;;;;;41.00;29.00;;;;;;;8.68;96.87;98804.36;106500;1310;138865;-82
2022/10/26 04:28:58;;;;;;;43.20;28.90;;;;;;;8.65;97.02;98803.35;106598;1310;22156;-82
2022/10/26 04:31:24;;;;;;;39.00;26.30;;;;;;;8.64;97.00;98798.73;106416;1298;138827;-82
2022/10/26 04:33:50;;;;;;;36.40;24.70;;;;;;;8.62;96.88;98798.93;106586;1312;22165;-82
2022/10/26 04:36:16;;;;;;;39.80;24.30;;;;;;;8.59;96.87;98799.10;106834;1302;22263;-81
2022/10/26 04:38:42;;;;;;;37.80;24.50;;;;;;;8.56;97.03;98797.62;106481;1293;138163;-81
2022/10/26 04:41:08;;;;;;;40.10;25.00;;;;;;;8.53;97.17;98797.11;106583;1295;22371;-81
2022/10/26 04:43:34;;;;;;;41.30;24.30;;;;;;;8.51;97.15;98798.79;106491;1305;138238;-82
2022/10/26 04:46:01;;;;;;;44.10;24.00;;;;;;;8.49;97.56;98794.98;106604;1310;22146;-81
2022/10/26 04:48:27;;;;;;;37.40;23.90;;;;;;;8.48;97.58;98801.00;106621;1289;22131;-81
2022/10/26 04:50:57;;;;;;;42.80;23.70;;;;;;;8.47;97.68;98800.63;106412;1302;138390;-81
2022/10/26 04:53:24;;;;;;;35.70;24.30;;;;;;;8.43;97.59;98798.49;106547;1312;22327;-81
2022/10/26 04:55:59;;;;;;;35.40;22.40;;;;;;;8.41;97.82;98801.95;106395;1312;138258;-82
2022/10/26 04:58:26;;;;;;;29.60;20.50;;;;;;;8.39;97.67;98805.80;106531;1311;22254;-81
2022/10/26 05:00:55;;;;;;;42.40;25.60;;;;;;;8.37;98.25;98798.89;106376;1299;138457;-81
2022/10/26 05:03:21;;;;;;;40.50;23.90;;;;;;;8.37;98.67;98804.65;106428;1312;22308;-81
2022/10/26 05:05:47;;;;;;;42.90;27.60;;;;;;;8.37;98.99;98798.48;106513;1310;22178;-81
2022/10/26 05:08:14;;;;;;;46.40;28.70;;;;;;;8.39;99.07;98805.67;106438;1312;138676;-81
2022/10/26 05:10:41;;;;;;;42.50;28.60;;;;;;;8.40;98.94;98809.36;106536;1296;22264;-81
2022/10/26 05:13:08;;;;;;;43.90;27.90;;;;;;;8.41;98.90;98815.15;106393;1312;138376;-81
2022/10/26 05:15:34;;;;;;;43.90;28.60;;;;;;;8.43;98.95;98814.90;106459;1310;22110;-81
2022/10/26 05:18:04;;;;;;;50.90;29.00;;;;;;;8.44;98.93;98816.48;106625;1310;22240;-81
2022/10/26 05:20:32;;;;;;;41.50;27.50;;;;;;;8.47;99.15;98813.73;106499;1310;138242;-82
2022/10/26 05:23:03;;;;;;;45.30;30.00;;;;;;;8.49;99.19;98814.02;106524;1304;23183;-81
2022/10/26 05:25:32;;;;;;;43.60;26.60;;;;;;;8.51;99.08;98815.37;106427;1303;138810;-81
2022/10/26 05:28:00;;;;;;;35.40;21.50;;;;;;;8.52;98.93;98828.65;106541;1312;22101;-81
2022/10/26 05:30:28;;;;;;;39.60;27.20;;;;;;;8.50;98.79;98824.70;106458;1311;22140;-81
2022/10/26 05:32:59;;;;;;;43.00;26.00;;;;;;;8.51;98.70;98829.83;106476;1296;138096;-81
2022/10/26 05:35:26;;;;;;;37.60;25.20;;;;;;;8.51;98.70;98837.47;106602;1310;22993;-81
2022/10/26 05:37:52;;;;;;;38.90;24.00;;;;;;;8.52;98.66;98843.26;106472;1310;138310;-81
2022/10/26 05:40:19;;;;;;;37.50;24.50;;;;;;;8.54;98.84;98838.32;106499;1313;22153;-81
2022/10/26 05:42:45;;;;;;;41.00;23.80;;;;;;;8.55;98.61;98841.02;106460;1298;22176;-81
2022/10/26 05:45:12;;;;;;;38.10;24.40;;;;;;;8.55;98.50;98840.05;106366;1311;138010;-81
2022/10/26 05:47:43;;;;;;;39.50;24.00;;;;;;;8.57;98.51;98839.67;106411;1312;22245;-81
2022/10/26 05:50:10;;;;;;;32.20;22.00;;;;;;;8.59;98.57;98841.40;106294;1307;138155;-81
2022/10/26 05:52:41;;;;;;;37.20;23.70;;;;;;;8.60;98.51;98837.88;106513;1297;23092;-82
2022/10/26 05:55:09;;;;;;;40.10;25.10;;;;;;;8.62;98.30;98845.30;106494;1310;139807;-75
2022/10/26 05:57:35;;;;;;;36.00;21.00;;;;;;;8.67;99.33;98843.96;106593;1310;22943;-74
2022/10/26 06:00:09;;;;;;;42.70;24.40;;;;;;;8.82;100.00;98843.49;106839;1292;22236;-75
2022/10/26 06:03:04;;;;;;;41.30;25.40;;;;;;;8.94;99.92;98845.45;106394;1298;138709;-74
2022/10/26 06:05:36;;;;;;;36.60;23.40;;;;;;;9.07;99.53;98845.98;106460;1312;22938;-80
2022/10/26 06:08:09;;;;;;;44.80;24.40;;;;;;;9.16;98.64;98849.41;106442;1310;138209;-80
2022/10/26 06:10:35;;;;;;;37.10;22.50;;;;;;;9.18;97.22;98848.59;106545;1312;23019;-80
2022/10/26 06:13:02;;;;;;;40.70;22.20;;;;;;;9.15;95.86;98855.89;106474;1296;138833;-80
2022/10/26 06:15:32;;;;;;;35.00;21.20;;;;;;;9.08;95.00;98860.15;106618;1311;22107;-80
2022/10/26 06:17:58;;;;;;;34.10;21.80;;;;;;;9.02;95.01;98862.48;106623;1310;22942;-80
2022/10/26 06:20:40;;;;;;;32.90;21.60;;;;;;;8.99;95.40;98860.70;106512;1310;138920;-80
2022/10/26 06:23:18;;;;;;;36.50;22.30;;;;;;;8.99;95.63;98860.03;106514;1298;22103;-80
2022/10/26 06:26:09;;;;;;;35.10;21.30;;;;;;;8.98;95.62;98863.16;106418;1311;138238;-80
2022/10/26 06:28:51;;;;;;;34.00;20.90;;;;;;;8.98;95.63;98863.27;106565;1312;22127;-80
2022/10/26 06:31:17;;;;;;;35.10;23.00;;;;;;;8.96;95.00;98862.11;106434;1312;138440;-80
2022/10/26 06:33:44;;;;;;;29.30;18.20;;;;;;;8.94;95.44;98865.05;106619;1295;23040;-79
2022/10/26 06:36:26;;;;;;;36.70;22.60;;;;;;;9.05;96.89;98868.38;106617;1310;22965;-80
2022/10/26 06:39:01;;;;;;;36.00;23.10;;;;;;;9.11;95.77;98869.59;106442;1305;139072;-80
2022/10/26 06:41:29;;;;;;;38.30;21.70;;;;;;;9.14;95.48;98873.21;106607;1310;22773;-80
2022/10/26 06:43:56;;;;;;;36.50;23.50;;;;;;;9.15;95.31;98874.66;106404;1298;138132;-80
2022/10/26 06:46:35;;;;;;;43.10;23.50;;;;;;;9.15;94.89;98879.34;106524;1312;22908;-80
2022/10/26 06:49:07;;;;;;;;;;;;;;;9.16;94.93;98879.64;106433;1312;138336;-80
2022/10/26 06:51:44;;;;;;;32.10;22.20;;;;;;;9.16;95.10;98883.38;106335;1312;22352;-80
2022/10/26 06:54:44;;;;;;;33.60;23.60;;;;;;;9.18;95.52;98884.57;106580;1296;22514;-80
2022/10/26 06:57:13;;;;;;;40.50;23.90;;;;;;;9.22;95.61;98887.42;106469;1310;138117;-80
2022/10/26 06:59:46;;;;;;;37.90;25.30;;;;;;;9.26;95.93;98889.55;106563;1300;22202;-80
2022/10/26 07:02:13;;;;;;;37.50;25.30;;;;;;;9.31;95.95;98889.49;106350;1313;138339;-80
2022/10/26 07:04:41;;;;;;;36.30;26.10;;;;;;;9.37;96.21;98895.82;106542;1311;22181;-80
2022/10/26 07:07:11;;;;;;;40.20;25.40;;;;;;;9.43;96.36;98898.31;106464;1312;138362;-80
2022/10/26 07:09:37;;;;;;;37.80;24.30;;;;;;;9.49;96.44;98897.86;106538;1312;22211;-80
2022/10/26 07:12:04;;;;;;;37.50;23.10;;;;;;;9.55;96.38;98899.73;106527;1311;22201;-80
2022/10/26 07:14:30;;;;;;;33.40;21.90;;;;;;;9.61;96.38;98898.39;106428;1296;138215;-80
2022/10/26 07:16:56;;;;;;;38.70;22.20;;;;;;;9.65;96.43;98894.41;106493;1310;22296;-80
2022/10/26 07:19:22;;;;;;;30.90;20.70;;;;;;;9.70;96.08;98898.16;106425;1312;138522;-80
2022/10/26 07:21:49;;;;;;;31.90;21.50;;;;;;;9.73;96.22;98899.80;106565;1310;22189;-80
2022/10/26 07:24:15;;;;;;;34.90;22.20;;;;;;;9.78;95.96;98901.33;106475;1298;22291;-80
2022/10/26 07:26:41;;;;;;;32.40;21.70;;;;;;;9.82;96.08;98904.00;106434;1312;138337;-80
2022/10/26 07:29:07;;;;;;;36.00;23.70;;;;;;;9.86;96.03;98906.79;106543;1311;22143;-80
2022/10/26 07:31:33;;;;;;;40.40;22.80;;;;;;;9.91;96.12;98905.89;106434;1312;138800;-79
2022/10/26 07:33:59;;;;;;;38.20;19.80;;;;;;;9.96;95.92;98905.17;106497;1312;22203;-80
2022/10/26 07:36:28;;;;;;;34.50;22.70;;;;;;;10.00;95.74;98907.77;106512;1311;22152;-80
2022/10/26 07:38:54;;;;;;;36.00;20.90;;;;;;;10.04;95.59;98909.47;106430;1296;138380;-80
2022/10/26 07:41:20;;;;;;;37.30;23.80;;;;;;;10.09;95.59;98912.09;106569;1312;22332;-80
2022/10/26 07:43:49;;;;;;;39.90;23.30;;;;;;;10.13;95.47;98911.98;106473;1302;138561;-80
2022/10/26 07:46:16;;;;;;;37.70;22.30;;;;;;;10.18;95.50;98911.20;106580;1310;22328;-80
2022/10/26 07:48:42;;;;;;;33.60;22.50;;;;;;;10.24;95.88;98911.08;106571;1308;22157;-80
2022/10/26 07:51:08;;;;;;;40.60;22.80;;;;;;;10.31;95.48;98914.84;106718;1303;139030;-80
2022/10/26 07:53:34;;;;;;;39.10;21.90;;;;;;;10.36;95.56;98911.81;106579;1301;22898;-80
2022/10/26 07:56:01;;;;;;;36.30;22.50;;;;;;;10.43;95.63;98913.63;106454;1303;138594;-80
2022/10/26 07:58:27;;;;;;;38.90;22.70;;;;;;;10.52;95.73;98913.84;106531;1312;22769;-80
2022/10/26 08:00:53;;;;;;;37.50;23.50;;;;;;;10.59;95.43;98914.89;106439;1312;138588;-79
2022/10/26 08:03:20;;;;;;;39.00;22.30;;;;;;;10.69;95.65;98914.15;106435;1312;23116;-80
2022/10/26 08:05:50;;;;;;;34.70;21.90;;;;;;;10.76;95.62;98909.88;106568;1296;22261;-80
2022/10/26 08:08:17;;;;;;;35.70;21.40;;;;;;;10.87;95.42;98908.16;106535;1300;138543;-79
2022/10/26 08:10:45;;;;;;;31.40;20.90;;;;;;;10.96;95.20;98911.33;106642;1313;22053;-80
2022/10/26 08:13:12;;;;;;;36.10;21.90;;;;;;;11.05;95.36;98906.91;106507;1310;139553;-79
2022/10/26 08:15:39;;;;;;;30.60;19.10;;;;;;;11.14;95.19;98905.20;106461;1302;22086;-80
2022/10/26 08:18:06;;;;;;;35.60;20.30;;;;;;;11.23;94.67;98902.73;106502;1312;23038;-80
2022/10/26 08:20:32;;;;;;;30.60;19.70;;;;;;;11.33;94.82;98906.15;106475;1312;138483;-80
2022/10/26 08:23:00;;;;;;;29.90;18.70;;;;;;;11.42;94.59;98907.78;106573;1312;22085;-80
2022/10/26 08:25:26;;;;;;;33.80;18.90;;;;;;;11.52;94.77;98906.59;106447;1296;138644;-79
2022/10/26 08:27:53;;;;;;;30.20;17.60;;;;;;;11.62;94.14;98908.27;106591;1310;22123;-80
2022/10/26 08:30:19;;;;;;;29.30;16.00;;;;;;;11.72;94.15;98908.73;106570;1312;22224;-79
2022/10/26 08:32:45;;;;;;;29.50;17.30;;;;;;;11.81;93.67;98909.47;106729;1295;138426;-79
2022/10/26 08:35:21;;;;;;;27.40;17.90;;;;;;;11.90;93.30;98905.23;106596;1291;22088;-79
2022/10/26 08:37:47;;;;;;;25.20;16.00;;;;;;;12.00;93.46;98902.02;106521;1310;138457;-80
2022/10/26 08:40:18;;;;;;;26.80;16.70;;;;;;;12.09;93.14;98902.52;106866;1303;22082;-80
2022/10/26 08:42:49;;;;;;;27.70;17.20;;;;;;;12.21;93.09;98901.55;106616;1308;22347;-80
2022/10/26 08:45:21;;;;;;;29.90;15.80;;;;;;;12.33;93.16;98900.02;106507;1302;22370;-80
2022/10/26 08:47:52;;;;;;;18.30;12.80;;;;;;;12.46;92.85;98904.00;106562;1312;22929;-80
2022/10/26 08:50:34;;;;;;;19.60;11.60;;;;;;;12.56;92.23;98902.48;106459;1312;138360;-80
2022/10/26 08:53:02;;;;;;;23.00;12.10;;;;;;;12.69;92.01;98901.59;106540;1307;22099;-80
2022/10/26 08:55:52;;;;;;;19.20;10.00;;;;;;;12.80;91.80;98900.70;106417;1294;139249;-80
2022/10/26 08:58:24;;;;;;;18.60;10.90;;;;;;;12.94;91.23;98908.13;106554;1312;22747;-80
2022/10/26 09:00:51;;;;;;;15.50;9.70;;;;;;;13.05;90.89;98903.55;106437;1312;138512;-79
2022/10/26 09:03:18;;;;;;;19.40;10.30;;;;;;;13.17;90.67;98907.39;106552;1310;22090;-80
2022/10/26 09:05:50;;;;;;;14.80;8.30;;;;;;;13.29;90.22;98902.16;106457;1298;22196;-79
2022/10/26 09:08:29;;;;;;;13.10;8.50;;;;;;;13.40;89.68;98896.42;106519;1313;138324;-80
2022/10/26 09:11:40;;;;;;;13.40;8.80;;;;;;;13.52;88.73;98891.38;106622;1316;22333;-80
2022/10/26 09:14:20;;;;;;;15.80;7.40;;;;;;;13.65;88.17;98892.31;105671;1313;138375;-80
2022/10/26 09:17:07;;;;;;;14.10;6.20;;;;;;;13.75;87.51;98893.25;105703;1319;22443;-79
2022/10/26 09:19:48;;;;;;;11.60;6.30;;;;;;;13.84;86.77;98893.91;105481;1320;138682;-80
2022/10/26 09:22:23;;;;;;;7.90;5.80;;;;;;;13.94;86.56;98890.80;105648;1320;22333;-80
2022/10/26 09:24:56;;;;;;;8.90;6.50;;;;;;;14.04;86.22;98892.34;105516;1320;138582;-79
2022/10/26 09:27:49;;;;;;;12.20;5.70;;;;;;;14.14;85.98;98894.64;105778;1308;22329;-79
2022/10/26 09:30:19;;;;;;;11.10;5.20;;;;;;;14.25;85.00;98896.06;105849;1309;22173;-79
2022/10/26 09:32:48;;;;;;;;;;;;;;;14.33;84.20;98895.31;105747;1320;138468;-79
2022/10/26 09:35:21;;;;;;;9.90;5.30;;;;;;;14.39;83.95;98894.39;106170;1310;179428;-79
2022/10/26 09:37:54;;;;;;;12.20;6.10;;;;;;;14.49;84.08;98899.04;105602;1310;138214;-80
2022/10/26 09:40:33;;;;;;;11.60;5.50;;;;;;;14.58;83.77;98899.14;105661;1320;22295;-80
2022/10/26 09:43:10;;;;;;;9.30;4.10;;;;;;;14.68;83.14;98904.34;105980;1313;138716;-80
2022/10/26 09:45:49;;;;;;;13.00;5.10;;;;;;;14.77;82.51;98901.17;105625;1320;22996;-79
2022/10/26 09:48:38;;;;;;;7.70;4.00;;;;;;;14.88;82.58;98904.60;105852;1309;22156;-80
2022/10/26 09:51:05;;;;;;;9.40;3.80;;;;;;;14.98;81.45;98905.29;106111;1313;138370;-80
2022/10/26 09:53:32;;;;;;;7.60;3.90;;;;;;;15.06;81.01;98901.01;106709;1305;22326;-79
2022/10/26 09:56:07;;;;;;;6.10;4.10;;;;;;;15.14;80.38;98901.89;106411;1312;138021;-80
2022/10/26 09:59:00;;;;;;;6.70;3.80;;;;;;;15.23;80.40;98900.02;106597;1310;22105;-80
2022/10/26 10:01:36;;;;;;;5.90;3.70;;;;;;;15.33;79.78;98902.72;106518;1310;138465;-79
2022/10/26 10:04:16;;;;;;;12.20;4.00;;;;;;;15.40;79.11;98900.58;106512;1310;22344;-79
2022/10/26 10:06:44;;;;;;;7.40;3.50;;;;;;;15.48;79.00;98892.60;106825;1302;22066;-79
2022/10/26 10:09:23;;;;;;;7.00;3.50;;;;;;;15.57;78.33;98897.04;106408;1311;138118;-80
2022/10/26 10:12:00;;;;;;;7.90;3.10;;;;;;;15.66;78.25;98894.12;106569;1310;22183;-79
2022/10/26 10:14:51;;;;;;;7.50;4.10;;;;;;;15.74;77.31;98892.80;106448;1309;138014;-79
2022/10/26 10:17:21;;;;;;;8.00;4.70;;;;;;;15.82;76.88;98893.88;106553;1310;22369;-80
2022/10/26 10:19:48;;;;;;;9.30;4.80;;;;;;;15.89;76.57;98895.89;106528;1310;137944;-79
2022/10/26 10:22:14;;;;;;;19.70;5.00;;;;;;;15.97;76.10;98894.32;106635;1310;22115;-79
2022/10/26 10:24:51;;;;;;;10.60;4.30;;;;;;;16.04;75.56;98898.58;106610;1310;22066;-79
2022/10/26 10:27:18;;;;;;;8.60;4.70;;;;;;;16.08;74.95;98898.75;106569;1301;22093;-79
2022/10/26 10:29:44;;;;;;;9.20;4.00;;;;;;;16.13;74.70;98890.36;106579;1310;22129;-79
2022/10/26 10:32:29;;;;;;;9.50;4.40;;;;;;;16.18;74.59;98890.38;106461;1311;138287;-79
2022/10/26 10:34:57;;;;;;;9.50;3.70;;;;;;;16.26;74.64;98891.66;106459;1312;22845;-79
2022/10/26 10:37:45;;;;;;;7.60;4.70;;;;;;;16.35;74.39;98889.09;106452;1299;138376;-79
2022/10/26 10:40:36;;;;;;;10.90;5.00;;;;;;;16.40;73.21;98893.71;106543;1310;22128;-79
2022/10/26 10:43:14;;;;;;;11.40;4.70;;;;;;;16.46;73.51;98893.23;106501;1309;139722;-79
2022/10/26 10:45:52;;;;;;;9.80;4.90;;;;;;;16.54;73.63;98891.31;106613;1295;22312;-79
2022/10/26 10:48:21;;;;;;;12.40;5.40;;;;;;;16.62;72.63;98891.48;106560;1301;22756;-79
2022/10/26 10:50:53;;;;;;;;;;;;;;;16.68;72.70;98892.04;106472;1310;138319;-79
2022/10/26 10:53:26;;;;;;;10.20;5.90;;;;;;;16.74;73.00;98887.15;106525;1310;22652;-79
2022/10/26 10:56:25;;;;;;;12.80;5.40;;;;;;;16.79;71.67;98889.29;106455;1310;138232;-79
2022/10/26 10:59:12;;;;;;;11.40;6.00;;;;;;;16.81;71.61;98884.89;106596;1302;22138;-79
2022/10/26 11:01:49;;;;;;;9.30;4.90;;;;;;;16.86;71.98;98884.30;106509;1310;138328;-79
2022/10/26 11:04:29;;;;;;;12.00;5.90;;;;;;;16.91;70.87;98882.83;106592;1310;23065;-79
2022/10/26 11:07:00;;;;;;;13.90;5.40;;;;;;;16.96;71.58;98885.62;106372;1313;138377;-79
2022/10/26 11:09:30;;;;;;;9.30;4.50;;;;;;;17.03;71.67;98885.13;106498;1298;22117;-78
2022/10/26 11:12:17;;;;;;;8.20;4.60;;;;;;;17.09;70.12;98885.45;106571;1303;22109;-79
2022/10/26 11:14:54;;;;;;;8.70;3.30;;;;;;;17.06;69.80;98887.66;106455;1310;138040;-79
2022/10/26 11:17:35;;;;;;;8.10;3.20;;;;;;;17.03;69.09;98884.41;106467;1310;22542;-79
2022/10/26 11:20:13;;;;;;;5.90;2.80;;;;;;;17.06;68.41;98883.14;106484;1296;138037;-78
2022/10/26 11:22:58;;;;;;;5.50;2.80;;;;;;;17.09;67.82;98883.95;106504;1310;22283;-79
2022/10/26 11:25:33;;;;;;;14.60;2.80;;;;;;;17.10;67.41;98884.35;106524;1310;138557;-79
2022/10/26 11:28:19;;;;;;;5.20;2.40;;;;;;;17.10;67.44;98886.83;106613;1310;23189;-79
2022/10/26 11:30:55;;;;;;;4.50;2.30;;;;;;;17.13;67.26;98886.04;106383;1305;22202;-79
2022/10/26 11:33:39;;;;;;;10.70;2.70;;;;;;;17.20;67.51;98890.33;106485;1310;22475;-79
2022/10/26 11:36:13;;;;;;;5.00;2.00;;;;;;;17.19;67.16;98888.67;106851;1298;22156;-79
2022/10/26 11:38:57;;;;;;;4.10;2.40;;;;;;;17.12;66.72;98886.54;106464;1307;137523;-79